Wetterdaten: Woche 12.06.23 - 18.06.23 (KW24)
Datum Zeit Temp. A. Feuchte A. Luftdruck Regen Wind Richtung Taupunkt Windchill
12.06.2023 00:00 17,4 C 55 % 1023 hPa 0,0 l/m 0,0 km/h (0 Bft) O-NO 8,1 C 17,4 C
12.06.2023 01:00 16,8 C 58 % 1023 hPa 0,0 l/m 0,6 km/h (0 Bft) O 8,5 C 16,8 C
12.06.2023 02:00 16,3 C 61 % 1023 hPa 0,0 l/m 0,0 km/h (0 Bft) O-NO 8,6 C 16,3 C
12.06.2023 03:00 15,7 C 62 % 1023 hPa 0,0 l/m 0,0 km/h (0 Bft) O-NO 8,3 C 15,7 C
12.06.2023 04:00 14,9 C 64 % 1023 hPa 0,0 l/m 0,0 km/h (0 Bft) O 8,1 C 14,9 C
12.06.2023 05:00 14,3 C 64 % 1023 hPa 0,0 l/m 0,0 km/h (0 Bft) O 7,7 C 14,3 C
12.06.2023 06:00 13,6 C 67 % 1023 hPa 0,0 l/m 0,0 km/h (0 Bft) O 7,5 C 13,6 C
12.06.2023 07:00 15,4 C 68 % 1023 hPa 0,0 l/m 0,2 km/h (0 Bft) O 9,6 C 15,4 C
12.06.2023 08:00 18,4 C 62 % 1023 hPa 0,0 l/m 2,7 km/h (1 Bft) O-SO 11,0 C 18,3 C
12.06.2023 09:00 21,0 C 53 % 1024 hPa 0,0 l/m 0,1 km/h (0 Bft) O-SO 11,0 C 21,0 C
12.06.2023 10:00 22,6 C 47 % 1024 hPa 0,0 l/m 0,0 km/h (0 Bft) O-SO 10,8 C 22,6 C
12.06.2023 11:00 24,3 C 41 % 1023 hPa 0,0 l/m 1,6 km/h (1 Bft) O-SO 10,3 C 24,3 C
12.06.2023 12:00 25,6 C 38 % 1023 hPa 0,0 l/m 5,4 km/h (1 Bft) O-SO 10,3 C 25,2 C
12.06.2023 13:00 26,0 C 35 % 1023 hPa 0,0 l/m 2,9 km/h (1 Bft) O 9,4 C 25,9 C
12.06.2023 14:00 26,9 C 32 % 1022 hPa 0,0 l/m 4,0 km/h (1 Bft) O-SO 8,9 C 26,7 C
12.06.2023 15:00 27,5 C 34 % 1022 hPa 0,0 l/m 4,0 km/h (1 Bft) N 10,0 C 27,3 C
12.06.2023 16:00 28,3 C 33 % 1022 hPa 0,0 l/m 1,3 km/h (1 Bft) O-SO 10,2 C 28,3 C
12.06.2023 17:00 27,7 C 33 % 1022 hPa 0,0 l/m 5,0 km/h (1 Bft) SO 9,9 C 27,4 C
12.06.2023 18:00 25,5 C 35 % 1021 hPa 0,0 l/m 0,0 km/h (0 Bft) O-SO 9,0 C 25,5 C
12.06.2023 19:00 23,7 C 38 % 1021 hPa 0,0 l/m 0,8 km/h (0 Bft) O 8,5 C 23,7 C
12.06.2023 20:00 21,9 C 42 % 1022 hPa 0,0 l/m 0,1 km/h (0 Bft) O 8,4 C 21,9 C
12.06.2023 21:00 19,6 C 47 % 1022 hPa 0,0 l/m 0,0 km/h (0 Bft) O 8,0 C 19,6 C
12.06.2023 22:00 18,0 C 51 % 1022 hPa 0,0 l/m 0,0 km/h (0 Bft) O-SO 7,6 C 18,0 C
12.06.2023 23:00 17,1 C 52 % 1022 hPa 0,0 l/m 0,0 km/h (0 Bft) O-SO 7,2 C 17,1 C
13.06.2023 00:00 16,3 C 54 % 1021 hPa 0,0 l/m 0,0 km/h (0 Bft) O 6,9 C 16,3 C
13.06.2023 01:00 15,5 C 56 % 1022 hPa 0,0 l/m 0,0 km/h (0 Bft) O 6,9 C 15,5 C
13.06.2023 02:00 14,6 C 58 % 1021 hPa 0,0 l/m 0,0 km/h (0 Bft) O 6,5 C 14,6 C
13.06.2023 03:00 13,2 C 61 % 1021 hPa 0,0 l/m 0,0 km/h (0 Bft) O 5,7 C 13,2 C
13.06.2023 04:00 11,8 C 64 % 1021 hPa 0,0 l/m 0,0 km/h (0 Bft) O 5,2 C 11,8 C
13.06.2023 05:00 10,8 C 67 % 1021 hPa 0,0 l/m 0,0 km/h (0 Bft) O 4,9 C 10,8 C
13.06.2023 06:00 10,9 C 70 % 1021 hPa 0,0 l/m 0,0 km/h (0 Bft) O 5,5 C 10,9 C
13.06.2023 07:00 12,3 C 71 % 1021 hPa 0,0 l/m 0,0 km/h (0 Bft) O-NO 7,2 C 12,3 C
13.06.2023 08:00 14,8 C 69 % 1021 hPa 0,0 l/m 0,0 km/h (0 Bft) N 9,2 C 14,8 C
13.06.2023 09:00 18,1 C 63 % 1021 hPa 0,0 l/m 0,0 km/h (0 Bft) NW 10,9 C 18,1 C
13.06.2023 10:00 20,9 C 51 % 1020 hPa 0,0 l/m 0,0 km/h (0 Bft) N 10,3 C 20,9 C
13.06.2023 11:00 23,0 C 39 % 1020 hPa 0,0 l/m 3,5 km/h (1 Bft) N-NO 8,3 C 22,7 C
13.06.2023 12:00 24,7 C 36 % 1020 hPa 0,0 l/m 1,8 km/h (1 Bft) O-SO 8,7 C 24,7 C
13.06.2023 13:00 25,1 C 34 % 1019 hPa 0,0 l/m 0,0 km/h (0 Bft) O-SO 7,9 C 25,1 C
13.06.2023 14:00 24,8 C 35 % 1019 hPa 0,0 l/m 2,3 km/h (1 Bft) N-NO 8,2 C 24,6 C
13.06.2023 15:00 25,4 C 33 % 1018 hPa 0,0 l/m 0,5 km/h (0 Bft) N 8,0 C 25,4 C
13.06.2023 16:00 24,5 C 34 % 1018 hPa 0,0 l/m 0,0 km/h (0 Bft) N-NO 7,7 C 24,5 C
13.06.2023 17:00 23,8 C 37 % 1018 hPa 0,0 l/m 0,0 km/h (0 Bft) N-NO 8,1 C 23,8 C
13.06.2023 18:00 23,5 C 37 % 1018 hPa 0,0 l/m 0,5 km/h (0 Bft) O 7,9 C 23,5 C
13.06.2023 19:00 22,5 C 38 % 1018 hPa 0,0 l/m 0,5 km/h (0 Bft) N 7,3 C 22,5 C
13.06.2023 20:00 21,0 C 40 % 1018 hPa 0,0 l/m 1,4 km/h (1 Bft) O 6,8 C 20,9 C
13.06.2023 21:00 18,7 C 46 % 1018 hPa 0,0 l/m 0,0 km/h (0 Bft) O 6,9 C 18,7 C
13.06.2023 22:00 16,5 C 51 % 1019 hPa 0,0 l/m 0,0 km/h (0 Bft) O 6,3 C 16,5 C
13.06.2023 23:00 15,3 C 56 % 1020 hPa 0,0 l/m 0,3 km/h (0 Bft) O 6,5 C 15,3 C
14.06.2023 00:00 14,2 C 59 % 1020 hPa 0,0 l/m 0,1 km/h (0 Bft) O-SO 6,3 C 14,2 C
14.06.2023 01:00 13,0 C 63 % 1020 hPa 0,0 l/m 0,0 km/h (0 Bft) N 6,1 C 13,0 C
14.06.2023 02:00 12,2 C 67 % 1020 hPa 0,0 l/m 0,5 km/h (0 Bft) N-NW 6,3 C 12,2 C
14.06.2023 03:00 11,5 C 70 % 1020 hPa 0,0 l/m 0,0 km/h (0 Bft) N-NW 6,2 C 11,5 C
14.06.2023 04:00 10,9 C 73 % 1020 hPa 0,0 l/m 0,0 km/h (0 Bft) N 6,2 C 10,9 C
14.06.2023 05:00 10,3 C 75 % 1021 hPa 0,0 l/m 0,0 km/h (0 Bft) N 6,1 C 10,3 C
14.06.2023 06:00 10,4 C 78 % 1021 hPa 0,0 l/m 0,0 km/h (0 Bft) NO 6,7 C 10,4 C
14.06.2023 07:00 11,5 C 77 % 1022 hPa 0,0 l/m 1,6 km/h (1 Bft) O-SO 7,7 C 11,5 C
14.06.2023 08:00 13,2 C 75 % 1022 hPa 0,0 l/m 0,0 km/h (0 Bft) N-NO 8,8 C 13,2 C
14.06.2023 09:00 15,0 C 70 % 1022 hPa 0,0 l/m 0,0 km/h (0 Bft) NO 9,7 C 15,0 C
14.06.2023 10:00 17,1 C 64 % 1022 hPa 0,0 l/m 3,1 km/h (1 Bft) SO 10,2 C 16,7 C
14.06.2023 11:00 19,8 C 56 % 1022 hPa 0,0 l/m 2,6 km/h (1 Bft) SO 10,8 C 19,6 C
14.06.2023 12:00 21,2 C 50 % 1022 hPa 0,0 l/m 0,0 km/h (0 Bft) N-NO 10,3 C 21,2 C
14.06.2023 13:00 21,8 C 46 % 1022 hPa 0,0 l/m 0,1 km/h (0 Bft) O-SO 9,6 C 21,8 C
14.06.2023 14:00 22,3 C 44 % 1022 hPa 0,0 l/m 4,8 km/h (1 Bft) N-NO 9,4 C 21,7 C
14.06.2023 15:00 23,4 C 41 % 1022 hPa 0,0 l/m 5,6 km/h (1 Bft) SO 9,5 C 22,7 C
14.06.2023 16:00 24,1 C 40 % 1022 hPa 0,0 l/m 0,2 km/h (0 Bft) O-SO 9,6 C 24,1 C
14.06.2023 17:00 22,9 C 43 % 1022 hPa 0,0 l/m 1,2 km/h (1 Bft) N 9,7 C 22,9 C
14.06.2023 18:00 20,8 C 48 % 1022 hPa 0,0 l/m 0,0 km/h (0 Bft) O 9,5 C 20,8 C
14.06.2023 19:00 20,0 C 52 % 1022 hPa 0,0 l/m 2,3 km/h (1 Bft) N 9,7 C 19,6 C
14.06.2023 20:00 19,3 C 54 % 1022 hPa 0,0 l/m 0,0 km/h (0 Bft) N-NW 9,6 C 19,3 C
14.06.2023 21:00 17,8 C 57 % 1023 hPa 0,0 l/m 0,0 km/h (0 Bft) N-NW 9,1 C 17,8 C
14.06.2023 22:00 16,1 C 61 % 1023 hPa 0,0 l/m 0,0 km/h (0 Bft) N 8,5 C 16,1 C
14.06.2023 23:00 15,0 C 63 % 1023 hPa 0,0 l/m 0,0 km/h (0 Bft) N 8,0 C 15,0 C
15.06.2023 00:00 13,3 C 66 % 1023 hPa 0,0 l/m 0,0 km/h (0 Bft) N 7,1 C 13,3 C
15.06.2023 01:00 12,5 C 69 % 1023 hPa 0,0 l/m 0,0 km/h (0 Bft) N 6,9 C 12,5 C
15.06.2023 02:00 11,9 C 71 % 1023 hPa 0,0 l/m 0,0 km/h (0 Bft) N 6,7 C 11,9 C
15.06.2023 03:00 11,2 C 73 % 1023 hPa 0,0 l/m 0,0 km/h (0 Bft) N 6,4 C 11,2 C
15.06.2023 04:00 10,2 C 74 % 1023 hPa 0,0 l/m 0,0 km/h (0 Bft) N 5,7 C 10,2 C
15.06.2023 05:00 9,6 C 76 % 1023 hPa 0,0 l/m 0,0 km/h (0 Bft) N 5,6 C 9,6 C
15.06.2023 06:00 9,9 C 78 % 1023 hPa 0,0 l/m 0,0 km/h (0 Bft) N 6,3 C 9,9 C
15.06.2023 07:00 11,0 C 79 % 1024 hPa 0,0 l/m 0,0 km/h (0 Bft) N 7,5 C 11,0 C
15.06.2023 08:00 13,2 C 80 % 1024 hPa 0,0 l/m 0,0 km/h (0 Bft) N 9,8 C 13,2 C
15.06.2023 09:00 16,6 C 72 % 1024 hPa 0,0 l/m 0,0 km/h (0 Bft) N-NW 11,6 C 16,6 C
15.06.2023 10:00 18,9 C 60 % 1024 hPa 0,0 l/m 0,0 km/h (0 Bft) N 11,0 C 18,9 C
15.06.2023 11:00 20,7 C 50 % 1024 hPa 0,0 l/m 2,7 km/h (1 Bft) NW 10,0 C 20,3 C
15.06.2023 12:00 22,1 C 44 % 1023 hPa 0,0 l/m 2,0 km/h (1 Bft) N 9,3 C 21,9 C
15.06.2023 13:00 22,9 C 41 % 1023 hPa 0,0 l/m 1,1 km/h (1 Bft) N-NO 9,1 C 22,9 C
15.06.2023 14:00 24,1 C 38 % 1022 hPa 0,0 l/m 1,4 km/h (1 Bft) NW 8,8 C 24,0 C
15.06.2023 15:00 25,0 C 34 % 1022 hPa 0,0 l/m 4,7 km/h (1 Bft) N 8,0 C 24,9 C
15.06.2023 16:00 24,4 C 36 % 1022 hPa 0,0 l/m 5,2 km/h (1 Bft) N 8,1 C 23,9 C
15.06.2023 17:00 23,7 C 34 % 1022 hPa 0,0 l/m 3,3 km/h (1 Bft) N-NO 6,9 C 23,4 C
15.06.2023 18:00 23,3 C 34 % 1022 hPa 0,0 l/m 3,3 km/h (1 Bft) N-NO 6,6 C 22,9 C
15.06.2023 19:00 22,4 C 38 % 1022 hPa 0,0 l/m 2,4 km/h (1 Bft) N 7,4 C 22,1 C
15.06.2023 20:00 20,9 C 42 % 1022 hPa 0,0 l/m 0,0 km/h (0 Bft) N 7,7 C 20,9 C
15.06.2023 21:00 19,1 C 47 % 1022 hPa 0,0 l/m 0,0 km/h (0 Bft) N 7,3 C 19,1 C
15.06.2023 22:00 17,3 C 50 % 1022 hPa 0,0 l/m 0,0 km/h (0 Bft) N 6,6 C 17,3 C
15.06.2023 23:00 15,6 C 53 % 1022 hPa 0,0 l/m 0,0 km/h (0 Bft) N 6,1 C 15,6 C
16.06.2023 00:00 14,9 C 57 % 1022 hPa 0,0 l/m 0,0 km/h (0 Bft) N 6,4 C 14,9 C
16.06.2023 01:00 14,4 C 59 % 1022 hPa 0,0 l/m 0,0 km/h (0 Bft) N 6,6 C 14,4 C
16.06.2023 02:00 13,2 C 62 % 1022 hPa 0,0 l/m 0,0 km/h (0 Bft) N 6,1 C 13,2 C
16.06.2023 03:00 12,5 C 64 % 1021 hPa 0,0 l/m 0,0 km/h (0 Bft) N 5,9 C 12,5 C
16.06.2023 04:00 12,4 C 67 % 1021 hPa 0,0 l/m 0,0 km/h (0 Bft) N 6,5 C 12,4 C
16.06.2023 05:00 12,7 C 68 % 1021 hPa 0,0 l/m 0,0 km/h (0 Bft) N 7,0 C 12,7 C
16.06.2023 06:00 13,2 C 68 % 1022 hPa 0,0 l/m 0,0 km/h (0 Bft) N 7,5 C 13,2 C
16.06.2023 07:00 14,3 C 70 % 1022 hPa 0,0 l/m 0,0 km/h (0 Bft) W-SW 8,9 C 14,3 C
16.06.2023 08:00 16,2 C 68 % 1022 hPa 0,0 l/m 0,0 km/h (0 Bft) N 10,2 C 16,2 C
16.06.2023 09:00 17,2 C 66 % 1022 hPa 0,0 l/m 0,0 km/h (0 Bft) N 10,7 C 17,2 C
16.06.2023 10:00 16,0 C 69 % 1023 hPa 0,0 l/m 0,4 km/h (0 Bft) N 10,4 C 16,0 C
16.06.2023 11:00 14,6 C 79 % 1023 hPa 0,0 l/m 0,0 km/h (0 Bft) W-NW 10,9 C 14,6 C
16.06.2023 12:00 17,0 C 74 % 1023 hPa 0,0 l/m 0,3 km/h (0 Bft) N-NW 12,3 C 17,0 C
16.06.2023 13:00 16,9 C 76 % 1023 hPa 0,0 l/m 1,1 km/h (1 Bft) W-NW 12,6 C 16,8 C
16.06.2023 14:00 19,4 C 68 % 1022 hPa 0,0 l/m 0,0 km/h (0 Bft) N 13,2 C 19,4 C
16.06.2023 15:00 18,1 C 70 % 1022 hPa 0,0 l/m 0,0 km/h (0 Bft) NW 12,6 C 18,1 C
16.06.2023 16:00 20,0 C 65 % 1022 hPa 0,0 l/m 0,0 km/h (0 Bft) NW 13,3 C 20,0 C
16.06.2023 17:00 19,8 C 64 % 1021 hPa 0,0 l/m 0,0 km/h (0 Bft) W-NW 12,7 C 19,8 C
16.06.2023 18:00 19,8 C 64 % 1021 hPa 0,0 l/m 0,0 km/h (0 Bft) W-NW 12,8 C 19,8 C
16.06.2023 19:00 18,4 C 66 % 1021 hPa 0,0 l/m 0,0 km/h (0 Bft) W-SW 11,8 C 18,4 C
16.06.2023 20:00 16,7 C 69 % 1021 hPa 0,0 l/m 0,0 km/h (0 Bft) W-SW 11,0 C 16,7 C
16.06.2023 21:00 15,5 C 73 % 1021 hPa 0,0 l/m 0,0 km/h (0 Bft) SW 10,6 C 15,5 C
16.06.2023 22:00 14,4 C 75 % 1021 hPa 0,0 l/m 0,0 km/h (0 Bft) SW 10,1 C 14,4 C
16.06.2023 23:00 13,1 C 79 % 1021 hPa 0,0 l/m 0,0 km/h (0 Bft) SW 9,6 C 13,1 C
17.06.2023 00:00 13,0 C 82 % 1021 hPa 0,0 l/m 0,0 km/h (0 Bft) SW 10,0 C 13,0 C
17.06.2023 01:00 12,9 C 84 % 1021 hPa 0,0 l/m 0,0 km/h (0 Bft) SW 10,2 C 12,9 C
17.06.2023 02:00 12,5 C 84 % 1020 hPa 0,0 l/m 0,0 km/h (0 Bft) SW 9,9 C 12,5 C
17.06.2023 03:00 11,6 C 84 % 1020 hPa 0,0 l/m 0,0 km/h (0 Bft) SW 9,0 C 11,6 C
17.06.2023 04:00 11,4 C 85 % 1020 hPa 0,0 l/m 0,0 km/h (0 Bft) SW 9,0 C 11,4 C
17.06.2023 05:00 11,3 C 86 % 1020 hPa 0,0 l/m 0,0 km/h (0 Bft) SW 9,1 C 11,3 C
17.06.2023 06:00 11,8 C 87 % 1020 hPa 0,0 l/m 0,0 km/h (0 Bft) SW 9,6 C 11,8 C
17.06.2023 07:00 13,5 C 87 % 1020 hPa 0,0 l/m 0,0 km/h (0 Bft) SW 11,3 C 13,5 C
17.06.2023 08:00 15,2 C 84 % 1020 hPa 0,0 l/m 0,0 km/h (0 Bft) SW 12,6 C 15,2 C
17.06.2023 09:00 17,4 C 79 % 1020 hPa 0,0 l/m 0,0 km/h (0 Bft) NW 13,7 C 17,4 C
17.06.2023 10:00 19,5 C 70 % 1020 hPa 0,0 l/m 1,4 km/h (1 Bft) NW 13,9 C 19,4 C
17.06.2023 11:00 21,2 C 63 % 1020 hPa 0,0 l/m 0,0 km/h (0 Bft) NW 13,9 C 21,2 C
17.06.2023 12:00 21,4 C 58 % 1020 hPa 0,0 l/m 0,2 km/h (0 Bft) NW 12,7 C 21,4 C
17.06.2023 13:00 22,3 C 53 % 1020 hPa 0,0 l/m 3,7 km/h (1 Bft) NW 12,3 C 21,8 C
17.06.2023 14:00 24,8 C 47 % 1019 hPa 0,0 l/m 0,0 km/h (0 Bft) W-NW 12,7 C 24,8 C
17.06.2023 15:00 26,7 C 42 % 1019 hPa 0,0 l/m 0,0 km/h (0 Bft) W 12,7 C 26,7 C
17.06.2023 16:00 25,6 C 43 % 1018 hPa 0,0 l/m 0,0 km/h (0 Bft) NW 12,0 C 25,6 C
17.06.2023 17:00 25,5 C 44 % 1018 hPa 0,0 l/m 1,7 km/h (1 Bft) N 12,2 C 25,3 C
17.06.2023 18:00 23,8 C 46 % 1019 hPa 0,0 l/m 6,2 km/h (2 Bft) N 11,5 C 23,2 C
17.06.2023 19:00 22,2 C 49 % 1019 hPa 0,0 l/m 3,6 km/h (1 Bft) N 11,1 C 21,8 C
17.06.2023 20:00 20,8 C 51 % 1019 hPa 0,0 l/m 0,0 km/h (0 Bft) N 10,3 C 20,8 C
17.06.2023 21:00 19,5 C 53 % 1019 hPa 0,0 l/m 0,0 km/h (0 Bft) N-NO 9,6 C 19,5 C
17.06.2023 22:00 17,6 C 56 % 1020 hPa 0,0 l/m 0,0 km/h (0 Bft) N-NO 8,7 C 17,6 C
17.06.2023 23:00 15,9 C 60 % 1020 hPa 0,0 l/m 0,0 km/h (0 Bft) N-NO 8,2 C 15,9 C
18.06.2023 00:00 15,0 C 64 % 1020 hPa 0,0 l/m 0,0 km/h (0 Bft) O 8,3 C 15,0 C
18.06.2023 01:00 13,9 C 67 % 1020 hPa 0,0 l/m 0,0 km/h (0 Bft) O 7,8 C 13,9 C
18.06.2023 02:00 12,9 C 70 % 1020 hPa 0,0 l/m 0,0 km/h (0 Bft) O 7,5 C 12,9 C
18.06.2023 03:00 12,1 C 72 % 1020 hPa 0,0 l/m 0,0 km/h (0 Bft) O 7,2 C 12,1 C
18.06.2023 04:00 11,6 C 75 % 1020 hPa 0,0 l/m 0,0 km/h (0 Bft) O 7,3 C 11,6 C
18.06.2023 05:00 11,5 C 78 % 1020 hPa 0,0 l/m 0,0 km/h (0 Bft) O 7,7 C 11,5 C
18.06.2023 06:00 12,0 C 80 % 1020 hPa 0,0 l/m 0,0 km/h (0 Bft) O 8,6 C 12,0 C
18.06.2023 07:00 13,7 C 80 % 1020 hPa 0,0 l/m 0,0 km/h (0 Bft) O 10,2 C 13,7 C
18.06.2023 08:00 16,2 C 76 % 1020 hPa 0,0 l/m 0,0 km/h (0 Bft) S-SO 12,0 C 16,2 C
18.06.2023 09:00 19,3 C 71 % 1021 hPa 0,0 l/m 0,0 km/h (0 Bft) S-SO 13,9 C 19,3 C
18.06.2023 10:00 22,3 C 59 % 1020 hPa 0,0 l/m 0,0 km/h (0 Bft) N-NW 13,9 C 22,3 C
18.06.2023 11:00 24,2 C 51 % 1020 hPa 0,0 l/m 0,9 km/h (0 Bft) N-NW 13,3 C 24,2 C
18.06.2023 12:00 26,1 C 47 % 1020 hPa 0,0 l/m 1,1 km/h (1 Bft) N 13,9 C 26,1 C
18.06.2023 13:00 27,0 C 42 % 1020 hPa 0,0 l/m 1,1 km/h (1 Bft) N 12,8 C 27,0 C
18.06.2023 14:00 27,9 C 38 % 1019 hPa 0,0 l/m 0,0 km/h (0 Bft) N 12,0 C 27,9 C
18.06.2023 15:00 29,1 C 33 % 1019 hPa 0,0 l/m 1,7 km/h (1 Bft) SW 11,1 C 29,0 C
18.06.2023 16:00 29,6 C 31 % 1019 hPa 0,0 l/m 0,9 km/h (0 Bft) N 10,8 C 29,6 C
18.06.2023 17:00 29,3 C 32 % 1018 hPa 0,0 l/m 1,3 km/h (1 Bft) N-NO 10,8 C 29,3 C
18.06.2023 18:00 27,8 C 35 % 1018 hPa 0,0 l/m 0,0 km/h (0 Bft) NO 10,7 C 27,8 C
18.06.2023 19:00 26,8 C 37 % 1018 hPa 0,0 l/m 0,0 km/h (0 Bft) O 10,6 C 26,8 C
18.06.2023 20:00 25,1 C 41 % 1018 hPa 0,0 l/m 0,0 km/h (0 Bft) O 10,7 C 25,1 C
18.06.2023 21:00 22,8 C 44 % 1018 hPa 0,0 l/m 0,0 km/h (0 Bft) O 10,0 C 22,8 C
18.06.2023 22:00 21,2 C 47 % 1019 hPa 0,0 l/m 0,0 km/h (0 Bft) O 9,3 C 21,2 C
18.06.2023 23:00 20,2 C 50 % 1019 hPa 0,0 l/m 0,0 km/h (0 Bft) O 9,3 C 20,2 C
Min-Datum _ 15.06.23 18.06.23 18.06.23 - 18.06.23 - 13.06.23 15.06.23
_ Min-Zeit 06:02 16:32 21:02 - 23:02 - 05:32 06:02
Minimum _ 9,5 C 30 % 1018 hPa - 0,0 km/h (0 Bft) - 4,7 C 9,5 C
Max-Datum _ 18.06.23 17.06.23 15.06.23 18.06.23 14.06.23 - 18.06.23 18.06.23
_ Max-Zeit 16:12 07:02 12:02 23:02 15:12 - 09:52 16:12
Maximum _ 29,9 C 87 % 1024 hPa 0,0 l/m 18,0 km/h
SO (3 Bft)
- 14,4 C 29,9 C
Durchschnitt _ 18,4 C 58 % 1021 hPa #0,0 l/m 0,7 km/h (0 Bft) N 9,2 C 18,3 C